createdAt,value
2019-05-18T00:01:14.600Z,14.00
2019-05-18T00:03:44.148Z,13.23
2019-05-18T00:06:13.640Z,13.77
2019-05-18T00:08:43.361Z,12.50
2019-05-18T00:11:12.864Z,14.63
2019-05-18T00:13:42.668Z,12.73
2019-05-18T00:16:12.201Z,12.57
2019-05-18T00:18:41.717Z,11.97
2019-05-18T00:21:11.339Z,11.07
2019-05-18T00:23:40.830Z,12.37
2019-05-18T00:26:10.349Z,12.40
2019-05-18T00:28:39.871Z,11.37
2019-05-18T00:31:09.335Z,11.10
2019-05-18T00:33:38.786Z,11.10
2019-05-18T00:36:08.418Z,11.87
2019-05-18T00:38:37.883Z,12.47
2019-05-18T00:41:07.409Z,12.80
2019-05-18T00:43:36.910Z,10.93
2019-05-18T00:46:06.371Z,9.87
2019-05-18T00:48:35.823Z,10.50
2019-05-18T00:51:05.280Z,11.17
2019-05-18T00:53:34.806Z,9.13
2019-05-18T00:56:04.290Z,10.33
2019-05-18T00:58:33.731Z,11.00
2019-05-18T01:01:03.270Z,10.90
2019-05-18T01:03:32.717Z,10.80
2019-05-18T01:06:02.173Z,10.53
2019-05-18T01:08:31.639Z,11.13
2019-05-18T01:11:01.090Z,10.83
2019-05-18T01:13:30.552Z,9.83
2019-05-18T01:16:00.004Z,11.50
2019-05-18T01:18:29.462Z,10.37
2019-05-18T01:20:59.367Z,10.20
2019-05-18T01:23:28.818Z,10.63
2019-05-18T01:25:58.311Z,10.63
2019-05-18T01:28:27.774Z,12.10
2019-05-18T01:30:57.235Z,13.23
2019-05-18T01:33:26.689Z,12.77
2019-05-18T01:35:56.160Z,12.63
2019-05-18T01:38:25.620Z,12.13
2019-05-18T01:40:55.084Z,13.53
2019-05-18T01:43:24.555Z,13.13
2019-05-18T01:45:54.003Z,12.73
2019-05-18T01:48:23.478Z,13.13
2019-05-18T01:50:52.945Z,13.03
2019-05-18T01:53:22.409Z,12.43
2019-05-18T01:55:51.862Z,12.43
2019-05-18T01:58:21.326Z,12.10
2019-05-18T02:00:50.777Z,12.27
2019-05-18T02:03:20.244Z,11.37
2019-05-18T02:05:49.781Z,11.63
2019-05-18T02:08:19.238Z,12.40
2019-05-18T02:10:48.689Z,11.63
2019-05-18T02:13:18.142Z,11.27
2019-05-18T02:15:47.607Z,11.80
2019-05-18T02:18:28.296Z,11.33
2019-05-18T02:20:48.136Z,14.00
2019-05-18T02:23:17.591Z,13.50
2019-05-18T02:25:47.045Z,11.90
2019-05-18T02:28:16.515Z,12.67
2019-05-18T02:30:45.953Z,12.17
2019-05-18T02:33:15.491Z,10.97
2019-05-18T02:35:44.965Z,11.63
2019-05-18T02:38:18.446Z,10.87
2019-05-18T02:40:48.062Z,11.50
2019-05-18T02:43:17.519Z,10.63
2019-05-18T02:45:46.995Z,11.00
2019-05-18T02:48:16.480Z,11.07
2019-05-18T02:50:45.961Z,10.20
2019-05-18T02:53:15.414Z,12.60
2019-05-18T02:55:44.954Z,11.00
2019-05-18T02:58:15.537Z,11.87
2019-05-18T03:00:45.031Z,11.13
2019-05-18T03:03:14.482Z,11.47
2019-05-18T03:05:44.638Z,12.23
2019-05-18T03:08:14.165Z,13.60
2019-05-18T03:10:43.813Z,12.63
2019-05-18T03:13:13.268Z,12.87
2019-05-18T03:15:42.749Z,11.87
2019-05-18T03:18:12.299Z,11.50
2019-05-18T03:20:41.781Z,10.87
2019-05-18T03:23:11.300Z,11.60
2019-05-18T03:25:40.778Z,12.03
2019-05-18T03:28:10.239Z,11.73
2019-05-18T03:30:39.730Z,11.90
2019-05-18T03:33:09.257Z,13.17
2019-05-18T03:35:38.818Z,13.10
2019-05-18T03:38:08.447Z,12.27
2019-05-18T03:40:37.903Z,10.97
2019-05-18T03:43:07.372Z,11.63
2019-05-18T03:45:36.967Z,11.53
2019-05-18T03:48:06.960Z,12.07
2019-05-18T03:50:36.424Z,12.80
2019-05-18T03:53:05.896Z,13.27
2019-05-18T03:55:35.356Z,12.30
2019-05-18T03:58:04.819Z,14.53
2019-05-18T04:00:34.289Z,16.07
2019-05-18T04:03:03.761Z,17.07
2019-05-18T04:05:33.226Z,17.37
2019-05-18T04:08:02.688Z,16.63
2019-05-18T04:10:32.165Z,13.77
2019-05-18T04:13:01.639Z,14.80
2019-05-18T04:15:31.173Z,14.87
2019-05-18T04:18:00.636Z,18.23
2019-05-18T04:20:30.122Z,26.97
2019-05-18T04:22:59.593Z,41.33
2019-05-18T04:25:29.098Z,41.53
2019-05-18T04:27:58.558Z,26.10
2019-05-18T04:30:28.011Z,24.50
2019-05-18T04:32:57.481Z,18.70
2019-05-18T04:35:26.949Z,17.93
2019-05-18T04:37:56.420Z,18.87
2019-05-18T04:40:25.888Z,18.77
2019-05-18T04:42:55.359Z,18.90
2019-05-18T04:45:24.824Z,20.30
2019-05-18T04:47:54.292Z,19.73
2019-05-18T04:50:23.764Z,19.87
2019-05-18T04:52:53.222Z,19.60
2019-05-18T04:55:22.694Z,19.40
2019-05-18T04:57:52.171Z,19.47
2019-05-18T05:00:21.706Z,19.27
2019-05-18T05:02:51.172Z,17.40
2019-05-18T05:05:20.642Z,17.70
2019-05-18T05:07:50.112Z,16.83
2019-05-18T05:10:19.586Z,16.57
2019-05-18T05:12:49.077Z,15.70
2019-05-18T05:15:18.544Z,15.90
2019-05-18T05:17:48.016Z,15.27
2019-05-18T05:20:20.036Z,15.33
2019-05-18T05:22:48.960Z,15.33
2019-05-18T05:25:18.429Z,14.50
2019-05-18T05:27:47.903Z,13.40
2019-05-18T05:30:17.452Z,14.07
2019-05-18T05:32:46.925Z,13.90
2019-05-18T05:35:16.399Z,12.57
2019-05-18T05:37:45.860Z,12.43
2019-05-18T05:40:17.093Z,13.40
2019-05-18T05:42:46.567Z,12.10
2019-05-18T05:45:16.403Z,13.00
2019-05-18T05:47:45.873Z,12.53
2019-05-18T05:50:15.344Z,11.47
2019-05-18T05:52:44.807Z,11.20
2019-05-18T05:55:14.417Z,11.37
2019-05-18T05:57:43.888Z,11.50
2019-05-18T06:00:13.698Z,10.40
2019-05-18T06:02:43.179Z,9.30
2019-05-18T06:05:14.293Z,10.13
2019-05-18T06:07:43.838Z,10.03
2019-05-18T06:10:13.641Z,9.33
2019-05-18T06:12:43.137Z,9.13
2019-05-18T06:15:13.144Z,8.93
2019-05-18T06:17:42.743Z,8.33
2019-05-18T06:20:12.588Z,8.90
2019-05-18T06:22:42.057Z,9.93
2019-05-18T06:25:11.868Z,8.10
2019-05-18T06:27:41.331Z,8.30
2019-05-18T06:30:12.237Z,8.80
2019-05-18T06:32:41.708Z,8.43
2019-05-18T06:35:11.528Z,8.00
2019-05-18T06:37:41.055Z,7.93
2019-05-18T06:40:10.804Z,8.00
2019-05-18T06:42:40.881Z,8.50
2019-05-18T06:45:10.840Z,8.67
2019-05-18T06:47:40.377Z,8.83
2019-05-18T06:50:12.532Z,8.10
2019-05-18T06:52:41.553Z,8.50
2019-05-18T06:55:11.079Z,7.60
2019-05-18T06:57:41.281Z,8.00
2019-05-18T07:00:11.445Z,8.27
2019-05-18T07:02:40.985Z,8.00
2019-05-18T07:05:10.543Z,8.17
2019-05-18T07:07:40.037Z,8.40
2019-05-18T07:10:09.680Z,8.20
2019-05-18T07:12:39.149Z,7.90
2019-05-18T07:15:09.777Z,8.37
2019-05-18T07:17:39.245Z,7.93
2019-05-18T07:20:09.476Z,7.77
2019-05-18T07:22:38.957Z,8.00
2019-05-18T07:25:08.740Z,7.87
2019-05-18T07:27:39.175Z,8.03
2019-05-18T07:30:09.508Z,7.87
2019-05-18T07:32:38.964Z,7.67
2019-05-18T07:35:08.925Z,7.57
2019-05-18T07:37:38.378Z,7.83
2019-05-18T07:40:08.316Z,7.77
2019-05-18T07:42:37.777Z,9.17
2019-05-18T07:45:09.005Z,7.30
2019-05-18T07:47:38.464Z,9.03
2019-05-18T07:50:09.493Z,7.63
2019-05-18T07:52:38.998Z,7.47
2019-05-18T07:55:08.676Z,7.70
2019-05-18T07:57:38.144Z,7.90
2019-05-18T08:00:07.991Z,7.57
2019-05-18T08:02:37.455Z,17.90
2019-05-18T08:05:08.381Z,8.30
2019-05-18T08:07:37.845Z,7.40
2019-05-18T08:10:08.178Z,7.40
2019-05-18T08:12:37.668Z,6.57
2019-05-18T08:15:10.750Z,7.33
2019-05-18T08:17:40.232Z,7.33
2019-05-18T08:20:10.252Z,6.90
2019-05-18T08:22:39.880Z,7.83
2019-05-18T08:25:09.500Z,7.03
2019-05-18T08:27:38.965Z,7.30
2019-05-18T08:30:08.884Z,6.67
2019-05-18T08:32:38.348Z,7.00
2019-05-18T08:35:08.267Z,7.43
2019-05-18T08:37:37.732Z,7.07
2019-05-18T08:40:08.469Z,6.97
2019-05-18T08:42:40.658Z,7.20
2019-05-18T08:45:11.452Z,7.80
2019-05-18T08:47:40.931Z,7.27
2019-05-18T08:50:10.739Z,7.23
2019-05-18T08:52:40.210Z,6.80
2019-05-18T08:55:10.007Z,7.60
2019-05-18T08:57:39.474Z,7.10
2019-05-18T09:00:09.476Z,6.70
2019-05-18T09:02:38.935Z,6.83
2019-05-18T09:05:08.769Z,6.23
2019-05-18T09:07:38.234Z,6.90
2019-05-18T09:10:08.160Z,7.63
2019-05-18T09:12:37.616Z,6.67
2019-05-18T09:15:07.544Z,6.83
2019-05-18T09:17:37.019Z,7.20
2019-05-18T09:20:07.938Z,6.40
2019-05-18T09:22:37.648Z,6.70
2019-05-18T09:25:07.647Z,6.13
2019-05-18T09:27:37.109Z,6.27
2019-05-18T09:30:08.966Z,6.90
2019-05-18T09:32:38.698Z,6.20
2019-05-18T09:35:08.943Z,7.77
2019-05-18T09:37:38.444Z,7.37
2019-05-18T09:40:08.676Z,6.90
2019-05-18T09:42:38.145Z,6.93
2019-05-18T09:45:08.445Z,5.87
2019-05-18T09:47:37.929Z,6.73
2019-05-18T09:50:07.831Z,6.40
2019-05-18T09:52:46.383Z,6.90
2019-05-18T09:55:09.653Z,6.37
2019-05-18T09:57:39.144Z,6.50
2019-05-18T10:00:10.764Z,7.20
2019-05-18T10:02:40.241Z,6.57
2019-05-18T10:05:09.773Z,6.63
2019-05-18T10:07:39.256Z,5.97
2019-05-18T10:10:09.087Z,6.90
2019-05-18T10:12:38.839Z,6.23
2019-05-18T10:15:09.860Z,6.40
2019-05-18T10:17:39.491Z,6.67
2019-05-18T10:20:10.079Z,6.43
2019-05-18T10:22:53.371Z,6.30
2019-05-18T10:25:12.600Z,7.50
2019-05-18T10:27:42.071Z,6.43
2019-05-18T10:30:12.349Z,7.10
2019-05-18T10:32:41.819Z,6.67
2019-05-18T10:35:12.222Z,5.80
2019-05-18T10:37:41.757Z,6.43
2019-05-18T10:40:11.769Z,6.13
2019-05-18T10:42:41.246Z,6.37
2019-05-18T10:45:11.252Z,6.03
2019-05-18T10:47:40.818Z,6.30
2019-05-18T10:50:10.714Z,6.13
2019-05-18T10:52:40.200Z,6.13
2019-05-18T10:55:10.102Z,5.93
2019-05-18T10:57:39.588Z,6.43
2019-05-18T11:00:10.882Z,6.37
2019-05-18T11:02:40.451Z,6.43
2019-05-18T11:05:10.267Z,6.73
2019-05-18T11:07:39.748Z,6.07
2019-05-18T11:10:10.829Z,5.97
2019-05-18T11:12:40.448Z,6.30
2019-05-18T11:15:11.764Z,6.63
2019-05-18T11:17:41.244Z,6.77
2019-05-18T11:20:11.564Z,7.33
2019-05-18T11:22:41.061Z,5.83
2019-05-18T11:25:10.943Z,5.50
2019-05-18T11:27:40.433Z,5.73
2019-05-18T11:30:12.004Z,5.70
2019-05-18T11:32:41.443Z,5.17
2019-05-18T11:35:11.344Z,6.50
2019-05-18T11:37:40.811Z,6.13
2019-05-18T11:40:10.948Z,6.17
2019-05-18T11:42:40.444Z,5.80
2019-05-18T11:45:11.434Z,5.73
2019-05-18T11:47:41.556Z,6.50
2019-05-18T11:50:11.664Z,6.30
2019-05-18T11:52:41.160Z,6.00
2019-05-18T11:55:11.620Z,6.03
2019-05-18T11:57:41.120Z,5.50
2019-05-18T12:00:13.584Z,5.30
2019-05-18T12:02:43.146Z,5.77
2019-05-18T12:05:14.148Z,5.77
2019-05-18T12:07:43.635Z,5.13
2019-05-18T12:10:13.331Z,6.30
2019-05-18T12:12:42.826Z,6.80
2019-05-18T12:15:13.035Z,6.33
2019-05-18T12:17:42.523Z,6.47
2019-05-18T12:20:12.340Z,6.13
2019-05-18T12:22:41.860Z,6.27
2019-05-18T12:25:11.666Z,6.47
2019-05-18T12:27:41.233Z,5.97
2019-05-18T12:30:11.794Z,6.20
2019-05-18T12:32:41.291Z,6.93
2019-05-18T12:35:14.056Z,6.30
2019-05-18T12:37:43.571Z,6.90
2019-05-18T12:40:16.116Z,6.57
2019-05-18T12:42:45.754Z,7.33
2019-05-18T12:45:15.656Z,6.03
2019-05-18T12:47:45.158Z,7.00
2019-05-18T12:50:15.552Z,7.08
2019-05-18T12:52:45.715Z,6.28
2019-05-18T12:55:15.873Z,6.85
2019-05-18T12:57:45.433Z,6.62
2019-05-18T13:00:17.891Z,7.05
2019-05-18T13:02:47.390Z,6.47
2019-05-18T13:05:17.579Z,5.95
2019-05-18T13:07:47.143Z,6.70
2019-05-18T13:10:17.768Z,7.12
2019-05-18T13:12:47.296Z,7.00
2019-05-18T13:15:18.468Z,7.12
2019-05-18T13:17:48.072Z,6.65
2019-05-18T13:20:18.060Z,6.62
2019-05-18T13:22:47.588Z,7.87
2019-05-18T13:25:17.268Z,6.80
2019-05-18T13:27:46.735Z,6.83
2019-05-18T13:30:19.701Z,7.33
2019-05-18T13:32:47.857Z,6.95
2019-05-18T13:35:17.448Z,7.50
2019-05-18T13:37:46.923Z,7.03
2019-05-18T13:40:18.501Z,7.40
2019-05-18T13:42:48.200Z,7.35
2019-05-18T13:45:18.984Z,7.25
2019-05-18T13:47:49.510Z,8.23
2019-05-18T13:50:19.416Z,8.15
2019-05-18T13:52:48.890Z,8.83
2019-05-18T13:55:18.520Z,7.75
2019-05-18T13:57:47.991Z,7.58
2019-05-18T14:00:18.039Z,8.00
2019-05-18T14:02:47.672Z,7.25
2019-05-18T14:05:17.304Z,7.70
2019-05-18T14:07:46.831Z,7.62
2019-05-18T14:10:16.472Z,7.67
2019-05-18T14:12:46.032Z,7.70
2019-05-18T14:15:15.893Z,8.48
2019-05-18T14:17:45.361Z,8.83
2019-05-18T14:20:15.376Z,7.25
2019-05-18T14:22:44.852Z,7.47
2019-05-18T14:25:19.776Z,7.87
2019-05-18T14:27:45.881Z,7.60
2019-05-18T14:30:15.700Z,7.85
2019-05-18T14:32:45.172Z,7.60
2019-05-18T14:35:14.900Z,7.60
2019-05-18T14:37:44.368Z,8.35
2019-05-18T14:40:14.432Z,8.18
2019-05-18T14:42:43.866Z,7.70
2019-05-18T14:45:14.499Z,8.10
2019-05-18T14:47:43.977Z,8.45
2019-05-18T14:50:14.397Z,8.68
2019-05-18T14:52:43.868Z,7.92
2019-05-18T14:55:13.702Z,8.58
2019-05-18T14:57:43.170Z,7.90
2019-05-18T15:00:13.172Z,8.68
2019-05-18T15:02:42.643Z,8.18
2019-05-18T15:05:12.369Z,8.03
2019-05-18T15:07:41.923Z,8.60
2019-05-18T15:10:11.560Z,8.60
2019-05-18T15:12:41.807Z,8.25
2019-05-18T15:15:11.828Z,7.87
2019-05-18T15:17:41.292Z,8.10
2019-05-18T15:20:11.808Z,8.30
2019-05-18T15:22:41.378Z,8.20
2019-05-18T15:25:11.476Z,8.33
2019-05-18T15:27:41.255Z,8.50
2019-05-18T15:30:10.960Z,8.03
2019-05-18T15:32:40.519Z,7.60
2019-05-18T15:35:10.764Z,8.13
2019-05-18T15:37:43.401Z,8.58
2019-05-18T15:40:12.007Z,8.68
2019-05-18T15:42:41.485Z,8.38
2019-05-18T15:45:11.346Z,10.03
2019-05-18T15:47:40.800Z,7.67
2019-05-18T15:50:10.935Z,8.33
2019-05-18T15:52:40.400Z,8.40
2019-05-18T15:55:10.127Z,9.03
2019-05-18T15:57:39.591Z,9.20
2019-05-18T16:00:11.232Z,9.30
2019-05-18T16:02:40.786Z,9.30
2019-05-18T16:05:10.624Z,8.38
2019-05-18T16:07:40.269Z,8.43
2019-05-18T16:10:10.395Z,8.33
2019-05-18T16:12:39.928Z,9.15
2019-05-18T16:15:09.951Z,8.90
2019-05-18T16:17:40.375Z,8.30
2019-05-18T16:20:10.978Z,9.13
2019-05-18T16:22:40.452Z,10.43
2019-05-18T16:25:10.186Z,8.28
2019-05-18T16:27:39.717Z,7.70
2019-05-18T16:30:09.731Z,9.05
2019-05-18T16:32:39.220Z,8.68
2019-05-18T16:35:10.547Z,9.00
2019-05-18T16:37:40.075Z,8.98
2019-05-18T16:40:10.176Z,8.03
2019-05-18T16:42:39.709Z,8.73
2019-05-18T16:45:09.714Z,15.45
2019-05-18T16:47:39.163Z,8.75
2019-05-18T16:50:09.043Z,8.45
2019-05-18T16:52:38.543Z,8.18
2019-05-18T16:55:10.430Z,8.65
2019-05-18T16:57:39.969Z,18.73
2019-05-18T17:00:15.968Z,15.35
2019-05-18T17:02:44.112Z,29.30
2019-05-18T17:05:14.357Z,19.07
2019-05-18T17:07:44.124Z,11.30
2019-05-18T17:10:14.160Z,9.70
2019-05-18T17:12:43.753Z,10.23
2019-05-18T17:15:13.684Z,9.80
2019-05-18T17:17:43.174Z,10.13
2019-05-18T17:20:13.259Z,9.27
2019-05-18T17:22:42.950Z,12.60
2019-05-18T17:25:12.996Z,16.57
2019-05-18T17:27:42.597Z,11.80
2019-05-18T17:30:12.537Z,13.40
2019-05-18T17:32:42.147Z,17.87
2019-05-18T17:35:12.629Z,11.57
2019-05-18T17:37:42.154Z,10.47
2019-05-18T17:40:12.194Z,12.63
2019-05-18T17:42:41.738Z,13.53
2019-05-18T17:45:11.606Z,12.43
2019-05-18T17:47:41.199Z,16.47
2019-05-18T17:50:11.659Z,14.60
2019-05-18T17:52:41.245Z,16.70
2019-05-18T17:55:12.265Z,17.73
2019-05-18T18:06:40.100Z,34.57
2019-05-18T18:09:09.521Z,44.87
2019-05-18T18:11:38.890Z,37.43
2019-05-18T18:14:08.428Z,28.50
2019-05-18T18:16:38.886Z,23.40
2019-05-18T18:19:08.242Z,26.70
2019-05-18T18:21:37.681Z,29.47
2019-05-18T18:24:07.018Z,27.63
2019-05-18T18:26:36.387Z,24.43
2019-05-18T18:29:05.726Z,15.90
2019-05-18T18:31:35.186Z,14.67
2019-05-18T18:34:04.769Z,12.07
2019-05-18T18:36:34.149Z,11.70
2019-05-18T18:39:04.650Z,11.50
2019-05-18T18:41:34.190Z,12.17
2019-05-18T18:44:03.704Z,12.70
2019-05-18T18:46:33.077Z,11.60
2019-05-18T18:49:02.528Z,11.47
2019-05-18T18:51:31.902Z,11.67
2019-05-18T18:54:01.259Z,13.10
2019-05-18T18:56:30.648Z,13.00
2019-05-18T18:59:00.014Z,13.20
2019-05-18T19:01:29.355Z,12.20
2019-05-18T19:03:58.710Z,12.07
2019-05-18T19:06:28.130Z,12.87
2019-05-18T19:08:57.510Z,12.87
2019-05-18T19:11:26.864Z,12.90
2019-05-18T19:13:56.225Z,12.40
2019-05-18T19:16:25.654Z,12.30
2019-05-18T19:18:54.993Z,12.77
2019-05-18T19:21:24.456Z,13.13
2019-05-18T19:23:53.863Z,18.27
2019-05-18T19:26:23.275Z,32.40
2019-05-18T19:28:52.774Z,41.00
2019-05-18T19:31:22.099Z,66.77
2019-05-18T19:33:51.470Z,83.80
2019-05-18T19:36:20.833Z,53.57
2019-05-18T19:38:50.282Z,57.47
2019-05-18T19:41:19.758Z,57.87
2019-05-18T19:43:49.184Z,56.70
2019-05-18T19:46:18.525Z,54.67
2019-05-18T19:48:47.959Z,48.30
2019-05-18T19:51:17.294Z,48.40
2019-05-18T19:53:46.642Z,45.03
2019-05-18T19:56:16.005Z,41.97
2019-05-18T19:58:45.393Z,42.53
2019-05-18T20:01:14.777Z,38.67
2019-05-18T20:03:44.119Z,39.20
2019-05-18T20:06:13.478Z,36.47
2019-05-18T20:08:42.925Z,33.30
2019-05-18T20:11:12.320Z,32.47
2019-05-18T20:13:41.661Z,29.80
2019-05-18T20:16:10.985Z,29.73
2019-05-18T20:18:40.424Z,29.40
2019-05-18T20:21:09.810Z,26.93
2019-05-18T20:23:39.255Z,27.23
2019-05-18T20:26:08.613Z,25.97
2019-05-18T20:28:37.975Z,26.80
2019-05-18T20:31:07.464Z,26.80
2019-05-18T20:33:36.821Z,24.87
2019-05-18T20:36:06.186Z,24.37
2019-05-18T20:38:35.580Z,24.57
2019-05-18T20:41:04.919Z,24.40
2019-05-18T20:43:34.466Z,24.77
2019-05-18T20:46:04.055Z,23.60
2019-05-18T20:48:33.467Z,22.80
2019-05-18T20:51:02.883Z,25.47
2019-05-18T20:53:32.258Z,25.83
2019-05-18T20:56:01.721Z,23.67
2019-05-18T20:58:39.404Z,24.33
2019-05-18T21:01:02.116Z,37.40
2019-05-18T21:03:31.489Z,30.90
2019-05-18T21:06:00.829Z,25.37
2019-05-18T21:08:30.211Z,24.53
2019-05-18T21:10:59.549Z,26.07
2019-05-18T21:13:28.948Z,24.60
2019-05-18T21:15:58.293Z,22.73
2019-05-18T21:18:27.667Z,25.13
2019-05-18T21:20:57.045Z,25.37
2019-05-18T21:23:26.455Z,26.50
2019-05-18T21:25:55.855Z,25.60
2019-05-18T21:28:25.255Z,24.50
2019-05-18T21:30:54.601Z,25.70
2019-05-18T21:33:23.944Z,24.60
2019-05-18T21:35:53.301Z,24.90
2019-05-18T21:38:22.652Z,24.60
2019-05-18T21:40:51.982Z,25.30
2019-05-18T21:43:21.329Z,27.13
2019-05-18T21:45:50.781Z,27.73
2019-05-18T21:48:20.185Z,27.17
2019-05-18T21:50:49.690Z,25.47
2019-05-18T21:53:19.044Z,25.17
2019-05-18T21:55:48.351Z,26.80
2019-05-18T21:58:18.637Z,25.83
2019-05-18T22:00:49.709Z,25.13
2019-05-18T22:03:19.258Z,25.50
2019-05-18T22:05:48.579Z,27.70
2019-05-18T22:08:17.965Z,28.23
2019-05-18T22:10:47.340Z,28.87
2019-05-18T22:13:16.655Z,27.27
2019-05-18T22:15:46.045Z,24.90
2019-05-18T22:18:24.011Z,26.47
2019-05-18T22:20:46.375Z,26.53
2019-05-18T22:23:15.695Z,28.53
2019-05-18T22:25:45.016Z,29.33
2019-05-18T22:28:14.410Z,27.43
2019-05-18T22:30:43.798Z,26.57
2019-05-18T22:33:13.110Z,30.53
2019-05-18T22:35:42.434Z,30.17
2019-05-18T22:38:11.772Z,29.53
2019-05-18T22:40:41.093Z,29.57
2019-05-18T22:43:10.414Z,28.11
2019-05-18T22:45:39.743Z,25.83
2019-05-18T22:48:09.076Z,24.97
2019-05-18T22:50:38.380Z,25.60
2019-05-18T22:53:07.700Z,26.33
2019-05-18T22:55:37.044Z,25.17
2019-05-18T22:58:06.367Z,25.67
2019-05-18T23:00:35.735Z,25.83
2019-05-18T23:03:05.127Z,25.80
2019-05-18T23:05:34.443Z,26.57
2019-05-18T23:08:03.765Z,25.07
2019-05-18T23:10:33.150Z,24.47
2019-05-18T23:13:02.496Z,23.90
2019-05-18T23:15:31.817Z,25.33
2019-05-18T23:18:01.126Z,25.97
2019-05-18T23:20:30.447Z,24.50
2019-05-18T23:22:59.766Z,24.77
2019-05-18T23:25:29.085Z,25.23
2019-05-18T23:27:58.398Z,24.07
2019-05-18T23:30:27.722Z,24.67
2019-05-18T23:32:57.030Z,26.43
2019-05-18T23:35:26.449Z,25.17
2019-05-18T23:37:55.764Z,25.83
2019-05-18T23:40:25.147Z,23.33
2019-05-18T23:42:54.463Z,25.77
2019-05-18T23:45:23.789Z,24.97
2019-05-18T23:47:53.151Z,24.97
2019-05-18T23:50:22.536Z,26.40
2019-05-18T23:52:51.868Z,25.73
2019-05-18T23:55:21.226Z,23.90
2019-05-18T23:57:51.117Z,24.53
